createdAt,value
2018-09-29T00:00:54.259Z,8.23
2018-09-29T00:03:22.627Z,9.20
2018-09-29T00:05:50.968Z,7.80
2018-09-29T00:08:19.323Z,7.17
2018-09-29T00:10:47.703Z,7.80
2018-09-29T00:13:16.063Z,10.37
2018-09-29T00:15:44.427Z,7.63
2018-09-29T00:18:12.787Z,7.13
2018-09-29T00:20:41.216Z,7.40
2018-09-29T00:23:09.604Z,8.43
2018-09-29T00:25:37.947Z,5.90
2018-09-29T00:28:06.275Z,7.70
2018-09-29T00:30:34.623Z,6.00
2018-09-29T00:33:03.276Z,4.80
2018-09-29T00:35:31.611Z,4.67
2018-09-29T00:37:59.955Z,7.97
2018-09-29T00:40:28.362Z,9.93
2018-09-29T00:42:56.719Z,8.30
2018-09-29T00:45:25.040Z,6.93
2018-09-29T00:47:53.392Z,8.37
2018-09-29T00:50:21.727Z,6.70
2018-09-29T00:52:50.099Z,9.57
2018-09-29T00:55:18.449Z,7.63
2018-09-29T00:57:46.810Z,7.33
2018-09-29T01:00:15.206Z,7.20
2018-09-29T01:02:43.567Z,9.27
2018-09-29T01:05:11.892Z,13.60
2018-09-29T01:07:40.266Z,8.40
2018-09-29T01:10:08.731Z,6.90
2018-09-29T01:12:37.116Z,11.03
2018-09-29T01:15:05.507Z,7.53
2018-09-29T01:17:33.868Z,8.83
2018-09-29T01:20:02.233Z,10.03
2018-09-29T01:22:30.809Z,9.70
2018-09-29T01:24:59.172Z,10.07
2018-09-29T01:27:27.671Z,5.93
2018-09-29T01:29:56.265Z,10.07
2018-09-29T01:32:24.670Z,9.80
2018-09-29T01:34:53.150Z,7.13
2018-09-29T01:37:21.607Z,7.90
2018-09-29T01:39:50.037Z,7.70
2018-09-29T01:42:18.546Z,11.20
2018-09-29T01:44:46.895Z,6.23
2018-09-29T01:47:15.221Z,8.97
2018-09-29T01:49:43.626Z,7.37
2018-09-29T01:52:12.027Z,7.73
2018-09-29T01:54:40.406Z,9.67
2018-09-29T01:57:08.890Z,5.67
2018-09-29T01:59:37.252Z,7.90
2018-09-29T02:02:05.631Z,5.87
2018-09-29T02:04:33.978Z,11.83
2018-09-29T02:07:02.432Z,6.83
2018-09-29T02:09:30.795Z,8.50
2018-09-29T02:11:59.373Z,7.43
2018-09-29T02:14:27.763Z,3.93
2018-09-29T02:16:56.103Z,8.50
2018-09-29T02:19:24.466Z,8.83
2018-09-29T02:21:52.823Z,8.83
2018-09-29T02:24:21.184Z,8.93
2018-09-29T02:26:49.524Z,8.13
2018-09-29T02:29:17.923Z,20.70
2018-09-29T02:31:46.397Z,6.63
2018-09-29T02:34:14.802Z,6.73
2018-09-29T02:36:43.167Z,7.10
2018-09-29T02:39:12.659Z,6.13
2018-09-29T02:41:40.991Z,7.60
2018-09-29T02:44:09.686Z,10.57
2018-09-29T02:46:38.212Z,7.20
2018-09-29T02:49:06.703Z,5.67
2018-09-29T02:51:35.052Z,5.93
2018-09-29T02:54:03.484Z,3.53
2018-09-29T02:56:31.830Z,5.20
2018-09-29T02:59:00.155Z,7.97
2018-09-29T03:01:28.547Z,4.30
2018-09-29T03:03:56.887Z,8.10
2018-09-29T03:06:25.270Z,5.77
2018-09-29T03:08:53.633Z,4.53
2018-09-29T03:11:22.104Z,9.87
2018-09-29T03:13:50.678Z,4.53
2018-09-29T03:16:19.184Z,5.53
2018-09-29T03:18:47.600Z,9.23
2018-09-29T03:21:16.117Z,5.97
2018-09-29T03:23:44.449Z,7.27
2018-09-29T03:26:12.847Z,8.53
2018-09-29T03:28:41.162Z,13.00
2018-09-29T03:31:09.672Z,16.03
2018-09-29T03:33:38.051Z,15.57
2018-09-29T03:36:06.749Z,11.53
2018-09-29T03:38:35.521Z,9.43
2018-09-29T03:41:03.872Z,8.07
2018-09-29T03:43:32.195Z,7.63
2018-09-29T03:46:00.639Z,7.30
2018-09-29T03:48:28.978Z,7.50
2018-09-29T03:50:57.355Z,7.40
2018-09-29T03:53:25.775Z,6.90
2018-09-29T03:55:54.135Z,9.80
2018-09-29T03:58:22.478Z,5.80
2018-09-29T04:00:50.846Z,5.90
2018-09-29T04:03:19.489Z,5.67
2018-09-29T04:05:47.873Z,7.37
2018-09-29T04:08:16.354Z,9.33
2018-09-29T04:10:44.714Z,10.00
2018-09-29T04:13:13.146Z,8.50
2018-09-29T04:15:41.413Z,5.00
2018-09-29T04:18:09.718Z,5.80
2018-09-29T04:20:38.095Z,5.13
2018-09-29T04:23:06.548Z,5.07
2018-09-29T04:25:34.805Z,8.67
2018-09-29T04:28:03.136Z,9.73
2018-09-29T04:30:31.397Z,6.07
2018-09-29T04:32:59.693Z,9.80
2018-09-29T04:35:28.026Z,5.57
2018-09-29T04:37:56.310Z,7.40
2018-09-29T04:40:24.625Z,7.40
2018-09-29T04:42:52.927Z,10.70
2018-09-29T04:45:21.189Z,8.73
2018-09-29T04:47:49.482Z,6.63
2018-09-29T04:50:17.777Z,4.53
2018-09-29T04:52:46.126Z,7.17
2018-09-29T04:55:14.445Z,4.40
2018-09-29T04:57:42.726Z,6.17
2018-09-29T05:00:11.033Z,5.93
2018-09-29T05:02:39.319Z,7.00
2018-09-29T05:05:07.637Z,7.93
2018-09-29T05:07:35.897Z,6.53
2018-09-29T05:10:04.222Z,8.10
2018-09-29T05:12:32.477Z,24.33
2018-09-29T05:15:00.751Z,6.83
2018-09-29T05:17:29.109Z,9.43
2018-09-29T05:19:57.406Z,6.33
2018-09-29T05:22:25.677Z,6.43
2018-09-29T05:24:53.959Z,8.53
2018-09-29T05:27:22.222Z,9.47
2018-09-29T05:29:50.509Z,11.23
2018-09-29T05:32:18.797Z,10.97
2018-09-29T05:34:47.108Z,9.30
2018-09-29T05:37:15.361Z,8.03
2018-09-29T05:39:43.652Z,9.90
2018-09-29T05:42:11.905Z,8.73
2018-09-29T05:44:40.181Z,9.37
2018-09-29T05:47:08.481Z,10.00
2018-09-29T05:49:36.949Z,8.17
2018-09-29T05:52:05.238Z,8.90
2018-09-29T05:54:33.625Z,13.53
2018-09-29T05:57:01.919Z,8.13
2018-09-29T05:59:30.209Z,11.67
2018-09-29T06:01:58.480Z,11.37
2018-09-29T06:04:27.353Z,6.83
2018-09-29T06:06:55.870Z,12.70
2018-09-29T06:09:24.154Z,11.47
2018-09-29T06:11:52.486Z,12.77
2018-09-29T06:14:20.788Z,17.70
2018-09-29T06:16:49.046Z,10.07
2018-09-29T06:19:17.339Z,10.53
2018-09-29T06:21:45.615Z,10.97
2018-09-29T06:24:13.915Z,10.93
2018-09-29T06:26:42.179Z,7.97
2018-09-29T06:29:10.476Z,7.90
2018-09-29T06:31:38.763Z,10.77
2018-09-29T06:34:07.062Z,8.47
2018-09-29T06:36:35.482Z,8.30
2018-09-29T06:39:04.234Z,9.73
2018-09-29T06:41:32.582Z,6.47
2018-09-29T06:44:00.870Z,8.83
2018-09-29T06:46:29.998Z,7.97
2018-09-29T06:48:58.289Z,10.47
2018-09-29T06:51:26.666Z,11.53
2018-09-29T06:53:54.936Z,13.03
2018-09-29T06:56:23.223Z,11.27
2018-09-29T06:58:51.529Z,10.53
2018-09-29T07:01:19.819Z,11.40
2018-09-29T07:03:48.097Z,7.93
2018-09-29T07:06:16.396Z,8.40
2018-09-29T07:08:44.661Z,7.67
2018-09-29T07:11:13.448Z,9.40
2018-09-29T07:13:41.748Z,11.40
2018-09-29T07:16:10.066Z,11.03
2018-09-29T07:18:38.350Z,7.83
2018-09-29T07:21:06.672Z,7.47
2018-09-29T07:23:34.991Z,8.77
2018-09-29T07:26:03.314Z,7.13
2018-09-29T07:28:31.630Z,8.53
2018-09-29T07:30:59.956Z,9.90
2018-09-29T07:33:28.469Z,7.77
2018-09-29T07:35:56.604Z,7.17
2018-09-29T07:38:24.886Z,9.97
2018-09-29T07:40:53.264Z,11.13
2018-09-29T07:43:21.672Z,9.07
2018-09-29T07:46:13.123Z,4.43
2018-09-29T07:50:05.998Z,11.43
2018-09-29T07:52:34.350Z,9.83
2018-09-29T07:55:02.906Z,12.17
2018-09-29T07:57:31.253Z,9.10
2018-09-29T07:59:59.573Z,8.80
2018-09-29T08:02:27.942Z,9.93
2018-09-29T08:04:56.894Z,5.37
2018-09-29T08:07:25.262Z,11.13
2018-09-29T08:09:53.624Z,11.57
2018-09-29T08:12:23.022Z,8.77
2018-09-29T08:14:51.480Z,8.57
2018-09-29T08:17:20.100Z,10.33
2018-09-29T08:20:16.846Z,6.77
2018-09-29T08:22:49.607Z,7.80
2018-09-29T08:25:18.262Z,10.53
2018-09-29T08:27:46.615Z,7.27
2018-09-29T08:33:41.079Z,10.87
2018-09-29T08:36:14.969Z,5.47
2018-09-29T08:38:43.750Z,13.00
2018-09-29T08:41:12.844Z,5.30
2018-09-29T08:43:41.991Z,6.47
2018-09-29T08:46:16.078Z,7.23
2018-09-29T08:48:52.738Z,7.33
2018-09-29T08:51:26.218Z,8.80
2018-09-29T08:53:58.364Z,8.17
2018-09-29T08:56:37.969Z,11.07
2018-09-29T09:00:42.930Z,7.47
2018-09-29T09:03:17.141Z,7.07
2018-09-29T09:05:52.321Z,6.80
2018-09-29T09:08:23.809Z,6.30
2018-09-29T09:11:10.511Z,7.07
2018-09-29T09:13:46.344Z,9.07
2018-09-29T09:16:21.065Z,7.63
2018-09-29T09:18:59.430Z,6.07
2018-09-29T09:21:33.986Z,8.80
2018-09-29T09:24:18.201Z,9.23
2018-09-29T09:26:55.484Z,7.17
2018-09-29T09:29:47.400Z,9.93
2018-09-29T09:32:29.153Z,2.40
2018-09-29T09:35:13.426Z,9.50
2018-09-29T09:37:58.942Z,4.13
2018-09-29T09:40:33.316Z,7.03
2018-09-29T09:43:10.152Z,4.87
2018-09-29T09:45:40.319Z,4.30
2018-09-29T09:48:38.851Z,5.03
2018-09-29T09:51:28.416Z,5.27
2018-09-29T09:54:08.293Z,9.10
2018-09-29T09:56:50.081Z,5.33
2018-09-29T09:59:31.657Z,6.53
2018-09-29T10:02:12.758Z,5.77
2018-09-29T10:04:47.130Z,3.67
2018-09-29T10:07:28.356Z,3.37
2018-09-29T10:10:07.066Z,4.40
2018-09-29T10:12:47.388Z,5.77
2018-09-29T10:15:28.184Z,4.77
2018-09-29T10:18:07.761Z,3.77
2018-09-29T10:20:46.700Z,3.27
2018-09-29T10:23:26.405Z,6.03
2018-09-29T10:26:03.000Z,3.77
2018-09-29T10:28:37.250Z,3.97
2018-09-29T10:31:11.450Z,4.03
2018-09-29T10:33:44.783Z,3.33
2018-09-29T10:36:25.716Z,3.07
2018-09-29T10:39:01.098Z,3.87
2018-09-29T10:41:38.754Z,1.93
2018-09-29T10:44:20.993Z,2.20
2018-09-29T10:47:09.500Z,2.30
2018-09-29T10:49:56.762Z,2.03
2018-09-29T10:52:38.753Z,4.70
2018-09-29T10:55:17.046Z,4.20
2018-09-29T10:58:10.514Z,6.10
2018-09-29T11:01:00.256Z,3.37
2018-09-29T11:03:41.780Z,2.63
2018-09-29T11:06:11.112Z,4.23
2018-09-29T11:08:39.519Z,3.07
2018-09-29T11:11:07.961Z,3.13
2018-09-29T11:13:36.336Z,2.43
2018-09-29T11:16:04.728Z,2.70
2018-09-29T11:18:33.130Z,3.07
2018-09-29T11:21:01.693Z,1.90
2018-09-29T11:23:29.994Z,3.13
2018-09-29T11:25:58.401Z,3.10
2018-09-29T11:28:27.087Z,1.53
2018-09-29T11:30:55.445Z,2.80
2018-09-29T11:33:24.862Z,3.37
2018-09-29T11:35:53.242Z,2.53
2018-09-29T11:38:21.640Z,4.40
2018-09-29T11:40:50.577Z,4.87
2018-09-29T11:43:18.928Z,2.50
2018-09-29T11:45:47.254Z,2.70
2018-09-29T11:48:15.622Z,4.77
2018-09-29T11:50:44.142Z,6.03
2018-09-29T11:53:12.594Z,3.20
2018-09-29T11:55:40.980Z,2.27
2018-09-29T11:58:12.129Z,2.03
2018-09-29T12:01:06.628Z,3.43
2018-09-29T12:03:35.156Z,5.43
2018-09-29T12:06:03.988Z,4.40
2018-09-29T12:08:32.400Z,2.37
2018-09-29T12:11:00.889Z,3.30
2018-09-29T12:13:29.388Z,4.70
2018-09-29T12:15:57.912Z,2.90
2018-09-29T12:18:27.244Z,2.07
2018-09-29T12:20:55.794Z,3.37
2018-09-29T12:23:24.128Z,3.73
2018-09-29T12:25:52.590Z,2.13
2018-09-29T12:28:21.279Z,2.83
2018-09-29T12:30:50.099Z,3.00
2018-09-29T12:33:18.458Z,2.60
2018-09-29T12:35:47.188Z,3.30
2018-09-29T12:38:15.571Z,4.93
2018-09-29T12:40:43.923Z,8.33
2018-09-29T12:43:12.842Z,4.30
2018-09-29T12:45:41.222Z,3.97
2018-09-29T12:48:09.707Z,3.27
2018-09-29T12:50:38.090Z,5.87
2018-09-29T12:53:06.468Z,3.67
2018-09-29T12:55:34.932Z,3.33
2018-09-29T12:58:03.338Z,6.20
2018-09-29T13:00:31.688Z,6.27
2018-09-29T13:03:00.107Z,3.87
2018-09-29T13:05:28.473Z,3.23
2018-09-29T13:07:56.803Z,5.27
2018-09-29T13:10:25.187Z,3.37
2018-09-29T13:12:53.547Z,6.00
2018-09-29T13:15:22.183Z,4.73
2018-09-29T13:17:50.531Z,3.80
2018-09-29T13:20:18.923Z,4.63
2018-09-29T13:22:47.427Z,4.43
2018-09-29T13:25:15.751Z,4.40
2018-09-29T13:27:44.172Z,3.07
2018-09-29T13:30:12.557Z,4.43
2018-09-29T13:32:40.947Z,3.07
2018-09-29T13:35:09.423Z,1.60
2018-09-29T13:37:37.762Z,3.50
2018-09-29T13:40:06.633Z,4.37
2018-09-29T13:42:35.174Z,5.03
2018-09-29T13:45:03.586Z,2.20
2018-09-29T13:47:31.975Z,3.43
2018-09-29T13:50:00.375Z,3.20
2018-09-29T13:52:28.787Z,2.13
2018-09-29T13:54:57.228Z,2.90
2018-09-29T13:57:25.655Z,3.07
2018-09-29T13:59:53.986Z,2.63
2018-09-29T14:02:22.496Z,3.00
2018-09-29T14:04:50.884Z,5.97
2018-09-29T14:07:19.311Z,4.27
2018-09-29T14:09:47.668Z,2.30
2018-09-29T14:12:16.123Z,5.13
2018-09-29T14:14:44.864Z,6.47
2018-09-29T14:17:13.283Z,6.53
2018-09-29T14:19:41.698Z,4.93
2018-09-29T14:22:10.220Z,4.07
2018-09-29T14:24:38.766Z,4.93
2018-09-29T14:27:07.199Z,4.10
2018-09-29T14:29:35.558Z,2.43
2018-09-29T14:32:04.120Z,4.40
2018-09-29T14:34:32.654Z,4.50
2018-09-29T14:37:01.411Z,6.60
2018-09-29T14:39:29.942Z,4.40
2018-09-29T14:41:58.498Z,5.10
2018-09-29T14:44:26.941Z,4.73
2018-09-29T14:46:55.295Z,4.97
2018-09-29T14:49:23.819Z,5.30
2018-09-29T14:51:52.292Z,4.67
2018-09-29T14:54:20.759Z,2.83
2018-09-29T14:56:49.219Z,8.37
2018-09-29T14:59:17.587Z,6.43
2018-09-29T15:01:46.139Z,18.17
2018-09-29T15:04:14.678Z,16.83
2018-09-29T15:06:43.201Z,44.77
2018-09-29T15:09:12.630Z,28.00
2018-09-29T15:11:41.251Z,14.43
2018-09-29T15:14:10.391Z,8.80
2018-09-29T15:16:39.310Z,44.77
2018-09-29T15:19:07.683Z,29.03
2018-09-29T15:21:36.160Z,20.10
2018-09-29T15:24:04.688Z,15.30
2018-09-29T15:26:33.959Z,11.67
2018-09-29T15:29:02.799Z,23.83
2018-09-29T15:31:31.215Z,11.23
2018-09-29T15:33:59.604Z,6.73
2018-09-29T15:36:28.035Z,4.20
2018-09-29T15:38:57.889Z,3.73
2018-09-29T15:41:26.442Z,5.40
2018-09-29T15:43:54.979Z,5.03
2018-09-29T15:46:23.545Z,3.90
2018-09-29T15:48:52.156Z,4.53
2018-09-29T15:51:20.506Z,7.33
2018-09-29T15:53:49.071Z,6.20
2018-09-29T15:56:17.776Z,15.40
2018-09-29T15:58:46.272Z,28.97
2018-09-29T16:01:14.670Z,11.23
2018-09-29T16:03:43.258Z,7.53
2018-09-29T16:06:12.092Z,14.33
2018-09-29T16:08:40.872Z,5.37
2018-09-29T16:11:09.246Z,4.43
2018-09-29T16:13:37.611Z,6.13
2018-09-29T16:16:06.297Z,4.87
2018-09-29T16:18:34.867Z,4.50
2018-09-29T16:21:03.271Z,7.67
2018-09-29T16:23:31.616Z,9.53
2018-09-29T16:26:00.068Z,4.00
2018-09-29T16:28:28.432Z,4.50
2018-09-29T16:30:56.819Z,5.33
2018-09-29T16:33:25.165Z,4.43
2018-09-29T16:35:53.526Z,4.53
2018-09-29T16:38:21.866Z,4.47
2018-09-29T16:40:50.320Z,4.73
2018-09-29T16:43:18.844Z,4.40
2018-09-29T16:45:47.148Z,4.57
2018-09-29T16:48:15.490Z,5.97
2018-09-29T16:50:44.023Z,6.73
2018-09-29T16:53:12.907Z,3.57
2018-09-29T16:55:41.413Z,4.97
2018-09-29T16:58:09.886Z,7.00
2018-09-29T17:00:38.255Z,11.37
2018-09-29T17:03:06.736Z,3.93
2018-09-29T17:05:35.072Z,7.90
2018-09-29T17:08:03.432Z,7.03
2018-09-29T17:10:31.782Z,7.83
2018-09-29T17:13:00.123Z,5.80
2018-09-29T17:15:28.487Z,18.83
2018-09-29T17:17:56.825Z,36.70
2018-09-29T17:20:25.157Z,53.50
2018-09-29T17:22:53.869Z,17.73
2018-09-29T17:25:22.212Z,14.03
2018-09-29T17:27:50.561Z,56.73
2018-09-29T17:30:18.886Z,69.97
2018-09-29T17:32:47.303Z,9.10
2018-09-29T17:35:15.670Z,8.03
2018-09-29T17:37:44.168Z,7.40
2018-09-29T17:40:12.518Z,6.63
2018-09-29T17:42:40.851Z,7.63
2018-09-29T17:45:09.288Z,9.60
2018-09-29T17:47:37.915Z,23.83
2018-09-29T17:50:07.439Z,18.33
2018-09-29T17:52:35.806Z,4.83
2018-09-29T17:55:04.250Z,3.10
2018-09-29T17:57:32.590Z,6.27
2018-09-29T18:00:01.485Z,7.50
2018-09-29T18:02:29.808Z,8.07
2018-09-29T18:04:58.351Z,7.30
2018-09-29T18:07:26.955Z,7.47
2018-09-29T18:09:55.369Z,4.40
2018-09-29T18:12:24.411Z,5.43
2018-09-29T18:14:52.769Z,3.93
2018-09-29T18:17:21.254Z,4.23
2018-09-29T18:19:49.692Z,4.40
2018-09-29T18:22:18.019Z,6.30
2018-09-29T18:24:46.379Z,8.73
2018-09-29T18:27:14.833Z,4.50
2018-09-29T18:29:43.534Z,3.40
2018-09-29T18:32:11.861Z,6.63
2018-09-29T18:34:40.207Z,3.93
2018-09-29T18:37:08.591Z,5.27
2018-09-29T18:39:37.005Z,3.90
2018-09-29T18:42:05.324Z,4.60
2018-09-29T18:44:33.770Z,7.93
2018-09-29T18:47:02.558Z,7.40
2018-09-29T18:49:30.965Z,6.37
2018-09-29T18:51:59.316Z,8.23
2018-09-29T18:54:27.749Z,10.40
2018-09-29T18:56:56.287Z,13.20
2018-09-29T18:59:24.992Z,19.80
2018-09-29T19:01:53.392Z,16.97
2018-09-29T19:04:21.743Z,18.47
2018-09-29T19:06:50.432Z,6.37
2018-09-29T19:09:18.885Z,14.17
2018-09-29T19:11:47.349Z,16.03
2018-09-29T19:14:16.290Z,6.73
2018-09-29T19:16:44.828Z,5.57
2018-09-29T19:19:14.190Z,4.73
2018-09-29T19:21:42.563Z,6.70
2018-09-29T19:24:11.128Z,6.33
2018-09-29T19:26:39.490Z,7.13
2018-09-29T19:29:07.803Z,7.63
2018-09-29T19:31:36.206Z,7.90
2018-09-29T19:34:05.212Z,8.50
2018-09-29T19:36:33.549Z,7.47
2018-09-29T19:39:02.122Z,5.97
2018-09-29T19:41:31.152Z,5.43
2018-09-29T19:43:59.500Z,8.23
2018-09-29T19:46:28.170Z,7.33
2018-09-29T19:48:56.890Z,5.77
2018-09-29T19:51:25.382Z,10.43
2018-09-29T19:53:53.751Z,6.97
2018-09-29T19:56:22.134Z,6.10
2018-09-29T19:58:50.522Z,5.97
2018-09-29T20:01:18.959Z,6.03
2018-09-29T20:03:47.666Z,8.87
2018-09-29T20:06:16.317Z,7.87
2018-09-29T20:08:44.685Z,9.20
2018-09-29T20:11:13.354Z,14.20
2018-09-29T20:13:41.803Z,11.33
2018-09-29T20:16:12.500Z,9.63
2018-09-29T20:18:40.898Z,9.87
2018-09-29T20:21:09.254Z,5.80
2018-09-29T20:23:37.603Z,9.87
2018-09-29T20:26:05.975Z,10.47
2018-09-29T20:28:34.342Z,7.37
2018-09-29T20:31:02.858Z,7.30
2018-09-29T20:33:31.247Z,8.60
2018-09-29T20:35:59.589Z,10.83
2018-09-29T20:38:27.971Z,7.97
2018-09-29T20:40:56.395Z,6.13
2018-09-29T20:43:25.063Z,7.73
2018-09-29T20:45:53.415Z,5.90
2018-09-29T20:48:21.793Z,6.37
2018-09-29T20:50:50.158Z,6.97
2018-09-29T20:53:18.486Z,7.87
2018-09-29T20:55:47.053Z,7.23
2018-09-29T20:58:15.395Z,8.10
2018-09-29T21:00:43.920Z,8.07
2018-09-29T21:03:12.329Z,6.93
2018-09-29T21:05:40.698Z,10.77
2018-09-29T21:08:09.058Z,9.23
2018-09-29T21:10:37.513Z,7.33
2018-09-29T21:13:06.101Z,3.90
2018-09-29T21:15:34.510Z,6.53
2018-09-29T21:18:03.043Z,6.50
2018-09-29T21:20:31.355Z,6.77
2018-09-29T21:22:59.766Z,5.50
2018-09-29T21:25:28.083Z,6.20
2018-09-29T21:27:56.977Z,9.30
2018-09-29T21:30:45.959Z,10.03
2018-09-29T21:33:14.324Z,5.80
2018-09-29T21:35:42.827Z,7.80
2018-09-29T21:38:12.334Z,5.77
2018-09-29T21:40:40.731Z,7.00
2018-09-29T21:43:09.097Z,4.10
2018-09-29T21:45:37.451Z,4.33
2018-09-29T21:48:05.835Z,7.83
2018-09-29T21:50:34.163Z,6.47
2018-09-29T21:53:02.509Z,6.83
2018-09-29T21:55:30.812Z,5.07
2018-09-29T21:57:59.180Z,6.33
2018-09-29T22:00:32.775Z,8.80
2018-09-29T22:03:01.128Z,7.27
2018-09-29T22:05:29.487Z,6.43
2018-09-29T22:07:57.842Z,4.73
2018-09-29T22:10:26.142Z,6.60
2018-09-29T22:12:54.522Z,6.43
2018-09-29T22:15:22.923Z,7.43
2018-09-29T22:17:51.536Z,7.17
2018-09-29T22:20:20.131Z,5.40
2018-09-29T22:22:48.472Z,7.77
2018-09-29T22:25:16.883Z,9.27
2018-09-29T22:27:45.386Z,8.80
2018-09-29T22:30:13.979Z,8.30
2018-09-29T22:32:42.315Z,13.13
2018-09-29T22:35:10.628Z,13.47
2018-09-29T22:37:38.969Z,12.77
2018-09-29T22:40:07.467Z,9.83
2018-09-29T22:42:36.055Z,11.53
2018-09-29T22:45:04.395Z,8.23
2018-09-29T22:47:32.863Z,11.30
2018-09-29T22:50:01.323Z,11.07
2018-09-29T22:52:29.658Z,13.57
2018-09-29T22:54:58.038Z,11.40
2018-09-29T22:57:26.450Z,11.03
2018-09-29T22:59:54.763Z,13.00
2018-09-29T23:02:23.132Z,10.47
2018-09-29T23:04:51.450Z,12.80
2018-09-29T23:07:19.875Z,11.73
2018-09-29T23:09:48.207Z,12.47
2018-09-29T23:12:16.530Z,14.57
2018-09-29T23:14:44.874Z,12.93
2018-09-29T23:17:13.228Z,13.33
2018-09-29T23:19:41.562Z,11.73
2018-09-29T23:22:09.902Z,13.47
2018-09-29T23:24:38.244Z,13.83
2018-09-29T23:27:06.749Z,14.00
2018-09-29T23:29:35.101Z,16.57
2018-09-29T23:32:03.434Z,16.90
2018-09-29T23:34:31.770Z,12.10
2018-09-29T23:37:00.088Z,14.50
2018-09-29T23:39:28.415Z,13.50
2018-09-29T23:41:57.315Z,13.70
2018-09-29T23:44:25.687Z,12.40
2018-09-29T23:46:54.035Z,13.40
2018-09-29T23:49:22.378Z,14.97
2018-09-29T23:51:50.712Z,15.63
2018-09-29T23:54:19.073Z,13.23
2018-09-29T23:56:47.411Z,13.43
2018-09-29T23:59:15.880Z,13.23
